Time;durP1;ratioP1;P1;durP2;ratioP2;P2;SDS_P1;SDS_P2;PMS_P1;PMS_P2;Temp;Humidity;BMP_temperature;BMP_pressure;BME280_temperature;BME280_humidity;BME280_pressure;Samples;Min_cycle;Max_cycle;Signal;HPM_P1;HPM_P2
2021/04/25 00:02:24;;;;;;;3.60;1.95;;;18.50;46.70;;;;;;6244008;23;20392;-75
2021/04/25 00:04:50;;;;;;;6.20;2.20;;;18.50;46.70;;;;;;6243163;23;20401;-74
2021/04/25 00:07:19;;;;;;;5.30;2.00;;;18.50;46.80;;;;;;6242573;23;20008;-74
2021/04/25 00:09:44;;;;;;;5.53;1.52;;;18.40;46.70;;;;;;6244692;23;20011;-75
2021/04/25 00:12:10;;;;;;;4.38;1.60;;;18.40;46.70;;;;;;6241454;23;20444;-75
2021/04/25 00:14:36;;;;;;;4.07;2.13;;;18.40;46.70;;;;;;6244017;23;19996;-74
2021/04/25 00:17:02;;;;;;;4.30;2.20;;;18.30;46.50;;;;;;6244222;23;20344;-75
2021/04/25 00:19:27;;;;;;;3.90;2.13;;;18.30;46.60;;;;;;6243065;23;20312;-75
2021/04/25 00:21:53;;;;;;;4.05;1.70;;;18.30;46.50;;;;;;6242845;23;20027;-73
2021/04/25 00:24:19;;;;;;;3.38;2.05;;;18.30;46.50;;;;;;6243133;23;20061;-75
2021/04/25 00:26:44;;;;;;;4.43;1.85;;;18.30;46.60;;;;;;6244607;23;20054;-74
2021/04/25 00:29:10;;;;;;;4.13;2.05;;;18.30;46.50;;;;;;6240075;23;20000;-71
2021/04/25 00:31:36;;;;;;;4.63;2.05;;;18.30;46.50;;;;;;6241311;23;20344;-75
2021/04/25 00:34:02;;;;;;;5.93;1.90;;;18.20;46.40;;;;;;6244058;23;20079;-74
2021/04/25 00:36:28;;;;;;;4.60;2.08;;;18.20;46.40;;;;;;6242936;23;20005;-74
2021/04/25 00:38:54;;;;;;;4.05;1.60;;;18.20;46.40;;;;;;6243874;23;20000;-73
2021/04/25 00:41:19;;;;;;;6.30;1.83;;;18.20;46.40;;;;;;6243715;23;20035;-74
2021/04/25 00:43:45;;;;;;;5.38;2.08;;;18.20;46.40;;;;;;6243658;23;19997;-75
2021/04/25 00:46:11;;;;;;;4.25;1.70;;;18.20;46.30;;;;;;6243758;23;20026;-75
2021/04/25 00:48:37;;;;;;;4.22;1.52;;;18.20;46.30;;;;;;6244007;23;20475;-75
2021/04/25 00:51:04;;;;;;;5.82;1.92;;;18.10;46.30;;;;;;6241235;23;20112;-74
2021/04/25 00:53:30;;;;;;;5.35;1.55;;;18.10;46.20;;;;;;6244619;23;20010;-75
2021/04/25 00:55:56;;;;;;;4.38;1.70;;;18.10;46.20;;;;;;6242351;23;20027;-74
2021/04/25 00:58:22;;;;;;;3.78;1.70;;;18.10;46.20;;;;;;6241395;23;20004;-74
2021/04/25 01:00:48;;;;;;;5.00;1.80;;;18.10;46.40;;;;;;6243636;23;20000;-75
2021/04/25 01:03:18;;;;;;;4.90;2.17;;;18.10;46.20;;;;;;6240616;23;20021;-75
2021/04/25 01:05:43;;;;;;;3.83;1.73;;;18.10;46.10;;;;;;6241029;23;20551;-74
2021/04/25 01:08:09;;;;;;;4.22;1.95;;;18.00;46.10;;;;;;6242444;23;20004;-75
2021/04/25 01:10:35;;;;;;;4.70;2.35;;;18.00;46.10;;;;;;6243498;23;20020;-74
2021/04/25 01:13:01;;;;;;;4.85;1.95;;;18.00;46.00;;;;;;6244188;23;20000;-75
2021/04/25 01:15:27;;;;;;;4.22;1.90;;;18.00;46.00;;;;;;6243193;23;20436;-75
2021/04/25 01:17:52;;;;;;;3.63;1.80;;;18.00;45.90;;;;;;6241611;23;20012;-74
2021/04/25 01:20:20;;;;;;;3.72;1.70;;;18.00;45.90;;;;;;6243305;23;20459;-75
2021/04/25 01:22:46;;;;;;;4.57;1.70;;;17.90;45.90;;;;;;6243133;23;20337;-73
2021/04/25 01:25:14;;;;;;;4.25;2.03;;;17.90;46.00;;;;;;6243293;23;20004;-74
2021/04/25 01:27:40;;;;;;;5.93;2.05;;;17.90;45.80;;;;;;6241677;23;20012;-75
2021/04/25 01:30:09;;;;;;;4.65;1.83;;;17.90;45.80;;;;;;6216361;23;20086;-75
2021/04/25 01:32:40;;;;;;;4.25;1.80;;;17.90;45.80;;;;;;6242647;22;20000;-75
2021/04/25 01:35:07;;;;;;;3.40;1.50;;;17.90;45.80;;;;;;6243509;23;20011;-74
2021/04/25 01:37:33;;;;;;;5.10;1.70;;;17.90;45.80;;;;;;6242624;23;20012;-75
2021/04/25 01:39:59;;;;;;;2.80;1.52;;;17.90;45.80;;;;;;6243732;23;20012;-74
2021/04/25 01:42:24;;;;;;;3.65;1.50;;;17.80;45.80;;;;;;6242165;23;20428;-75
2021/04/25 01:44:50;;;;;;;3.00;1.65;;;17.80;45.80;;;;;;6243708;23;20050;-74
2021/04/25 01:47:16;;;;;;;3.55;1.65;;;17.80;45.80;;;;;;6244018;23;20061;-74
2021/04/25 01:49:42;;;;;;;3.65;2.10;;;17.80;45.70;;;;;;6242652;23;20436;-74
2021/04/25 01:52:07;;;;;;;3.33;1.70;;;17.80;45.70;;;;;;6243909;23;20008;-72
2021/04/25 01:54:33;;;;;;;5.57;1.92;;;17.80;45.70;;;;;;6243351;23;20011;-72
2021/04/25 01:56:59;;;;;;;2.72;1.48;;;17.80;45.70;;;;;;6241713;23;20352;-74
2021/04/25 01:59:24;;;;;;;3.22;1.42;;;17.80;45.70;;;;;;6243600;23;20336;-72
2021/04/25 02:01:50;;;;;;;3.13;1.80;;;17.80;45.60;;;;;;6243791;23;20070;-75
2021/04/25 02:04:16;;;;;;;3.55;1.80;;;17.70;45.60;;;;;;6243066;23;20341;-74
2021/04/25 02:06:43;;;;;;;3.30;1.38;;;17.70;45.70;;;;;;6243287;23;20488;-73
2021/04/25 02:09:10;;;;;;;3.70;1.73;;;17.70;45.70;;;;;;6243199;23;20051;-73
2021/04/25 02:11:36;;;;;;;3.15;1.80;;;17.70;45.60;;;;;;6243614;22;20083;-73
2021/04/25 02:14:06;;;;;;;4.10;2.10;;;17.70;45.70;;;;;;6243579;23;20023;-73
2021/04/25 02:16:32;;;;;;;5.05;2.13;;;17.60;45.70;;;;;;6244211;23;20513;-74
2021/04/25 02:18:58;;;;;;;4.95;1.83;;;17.60;45.70;;;;;;6240838;23;20031;-73
2021/04/25 02:21:24;;;;;;;5.28;2.13;;;17.60;45.70;;;;;;6242436;23;20421;-72
2021/04/25 02:23:50;;;;;;;3.95;1.90;;;17.60;45.70;;;;;;6243836;23;20059;-73
2021/04/25 02:26:16;;;;;;;3.22;1.70;;;17.60;45.70;;;;;;6242529;23;20494;-72
2021/04/25 02:28:42;;;;;;;3.42;1.63;;;17.60;45.70;;;;;;6244735;23;20004;-74
2021/04/25 02:31:07;;;;;;;4.15;1.90;;;17.60;45.70;;;;;;6245836;23;20432;-75
2021/04/25 02:33:33;;;;;;;5.60;1.90;;;17.60;45.70;;;;;;6245532;23;20526;-72
2021/04/25 02:35:58;;;;;;;3.35;2.10;;;17.60;45.60;;;;;;6244923;23;20069;-73
2021/04/25 02:38:24;;;;;;;4.05;1.92;;;17.60;45.70;;;;;;6244554;23;20007;-74
2021/04/25 02:40:50;;;;;;;5.13;2.10;;;17.60;45.60;;;;;;6245148;23;20384;-74
2021/04/25 02:43:16;;;;;;;2.67;1.85;;;17.60;45.70;;;;;;6245410;23;20008;-74
2021/04/25 02:45:42;;;;;;;4.22;2.20;;;17.50;45.60;;;;;;6243956;23;20000;-73
2021/04/25 02:48:09;;;;;;;4.47;2.22;;;17.50;45.60;;;;;;6245363;23;20061;-72
2021/04/25 02:50:40;;;;;;;3.55;1.73;;;17.50;45.50;;;;;;6245128;23;19996;-72
2021/04/25 02:53:07;;;;;;;3.75;1.70;;;17.50;45.60;;;;;;6243617;23;20005;-74
2021/04/25 02:55:33;;;;;;;4.18;1.92;;;17.50;45.50;;;;;;6245319;23;20027;-72
2021/04/25 02:57:58;;;;;;;3.10;1.90;;;17.50;45.60;;;;;;6245181;23;20070;-75
2021/04/25 03:00:26;;;;;;;4.10;1.75;;;17.50;45.60;;;;;;6244369;23;20012;-74
2021/04/25 03:02:53;;;;;;;4.35;2.15;;;17.50;45.60;;;;;;6244887;23;20417;-73
2021/04/25 03:05:19;;;;;;;5.45;2.10;;;17.40;45.70;;;;;;6244725;23;20075;-73
2021/04/25 03:07:45;;;;;;;5.65;2.65;;;17.40;45.60;;;;;;6241252;23;20058;-74
2021/04/25 03:10:12;;;;;;;3.65;2.05;;;17.40;45.60;;;;;;6243960;23;20001;-75
2021/04/25 03:12:38;;;;;;;5.05;3.15;;;17.40;45.70;;;;;;6245764;23;20000;-71
2021/04/25 03:15:06;;;;;;;2.50;1.70;;;17.40;45.70;;;;;;6243010;23;20035;-74
2021/04/25 03:17:32;;;;;;;3.63;2.20;;;17.40;45.70;;;;;;6245109;23;20000;-73
2021/04/25 03:20:01;;;;;;;3.67;2.38;;;17.40;45.60;;;;;;6244054;23;20011;-72
2021/04/25 03:22:26;;;;;;;3.83;2.00;;;17.40;45.70;;;;;;6244545;23;20081;-73
2021/04/25 03:24:52;;;;;;;6.32;2.70;;;17.30;45.60;;;;;;6244764;23;20432;-72
2021/04/25 03:27:18;;;;;;;4.40;2.22;;;17.30;45.60;;;;;;6245101;23;20012;-73
2021/04/25 03:29:43;;;;;;;4.25;2.42;;;17.30;45.60;;;;;;6244581;23;20010;-73
2021/04/25 03:32:09;;;;;;;5.30;2.60;;;17.30;45.70;;;;;;6245139;23;20372;-73
2021/04/25 03:34:36;;;;;;;5.90;2.80;;;17.30;45.70;;;;;;6244392;23;20003;-74
2021/04/25 03:37:02;;;;;;;6.50;3.00;;;17.30;45.70;;;;;;6244662;23;20027;-72
2021/04/25 03:39:27;;;;;;;4.88;2.50;;;17.30;45.70;;;;;;6240754;23;19997;-74
2021/04/25 03:41:53;;;;;;;5.70;2.78;;;17.30;45.70;;;;;;6244834;23;20059;-74
2021/04/25 03:44:18;;;;;;;4.60;2.08;;;17.30;45.70;;;;;;6242357;23;20455;-71
2021/04/25 03:46:45;;;;;;;6.57;2.88;;;17.30;45.70;;;;;;6244318;23;20000;-73
2021/04/25 03:49:10;;;;;;;5.18;2.67;;;17.30;45.80;;;;;;6244727;23;20046;-73
2021/04/25 03:51:37;;;;;;;6.88;3.13;;;17.20;45.70;;;;;;6244795;23;20368;-74
2021/04/25 03:54:03;;;;;;;5.80;3.30;;;17.20;45.70;;;;;;6244163;23;20004;-74
2021/04/25 03:56:28;;;;;;;5.25;3.05;;;17.20;45.70;;;;;;6244804;23;20015;-75
2021/04/25 03:58:54;;;;;;;4.43;2.70;;;17.20;45.80;;;;;;6244514;23;20336;-76
2021/04/25 04:01:20;;;;;;;4.65;3.42;;;17.20;45.70;;;;;;6244025;23;20012;-75
2021/04/25 04:03:45;;;;;;;5.55;2.92;;;17.20;45.70;;;;;;6244397;23;20003;-73
2021/04/25 04:06:11;;;;;;;5.00;2.85;;;17.20;45.70;;;;;;6244452;23;20004;-75
2021/04/25 04:08:37;;;;;;;4.38;2.33;;;17.20;45.70;;;;;;6243661;23;20000;-74
2021/04/25 04:11:03;;;;;;;4.40;2.90;;;17.20;45.60;;;;;;6242572;23;20004;-74
2021/04/25 04:13:29;;;;;;;3.92;2.28;;;17.20;45.60;;;;;;6241451;23;20727;-72
2021/04/25 04:15:55;;;;;;;4.25;2.78;;;17.20;45.70;;;;;;6243938;23;20000;-75
2021/04/25 04:18:21;;;;;;;5.80;2.58;;;17.20;45.70;;;;;;6243806;23;20008;-75
2021/04/25 04:20:46;;;;;;;5.45;2.60;;;17.20;45.80;;;;;;6243234;23;20467;-73
2021/04/25 04:23:13;;;;;;;6.55;3.38;;;17.20;45.80;;;;;;6244365;23;20437;-72
2021/04/25 04:25:39;;;;;;;4.85;2.90;;;17.20;45.80;;;;;;6244481;23;20008;-72
2021/04/25 04:28:04;;;;;;;5.25;2.90;;;17.10;45.70;;;;;;6242783;23;20004;-74
2021/04/25 04:30:30;;;;;;;5.00;2.75;;;17.20;45.80;;;;;;6243457;23;20043;-73
2021/04/25 04:32:56;;;;;;;5.25;3.38;;;17.10;45.80;;;;;;6243450;23;19996;-73
2021/04/25 04:35:22;;;;;;;4.72;2.70;;;17.20;45.70;;;;;;6241513;23;20004;-74
2021/04/25 04:37:47;;;;;;;6.35;3.47;;;17.20;45.80;;;;;;6244320;23;20031;-74
2021/04/25 04:40:14;;;;;;;6.13;2.83;;;17.20;45.80;;;;;;6236976;23;20439;-72
2021/04/25 04:42:43;;;;;;;5.40;2.97;;;17.10;45.80;;;;;;6243702;23;20383;-75
2021/04/25 04:45:13;;;;;;;4.97;2.60;;;17.10;45.80;;;;;;6243694;23;20076;-74
2021/04/25 04:47:39;;;;;;;4.78;3.10;;;17.10;45.80;;;;;;6242597;23;20391;-72
2021/04/25 04:50:05;;;;;;;4.03;2.60;;;17.10;45.80;;;;;;6243519;23;20051;-75
2021/04/25 04:52:31;;;;;;;5.30;3.15;;;17.10;45.90;;;;;;6243015;23;20429;-73
2021/04/25 04:54:57;;;;;;;8.13;3.45;;;17.10;45.90;;;;;;6243449;23;20011;-74
2021/04/25 04:57:23;;;;;;;4.68;2.83;;;17.10;45.90;;;;;;6244039;23;20006;-73
2021/04/25 04:59:49;;;;;;;4.15;3.08;;;17.10;45.90;;;;;;6243288;23;20078;-74
2021/04/25 05:02:15;;;;;;;4.45;2.67;;;17.10;46.00;;;;;;6243645;23;20015;-73
2021/04/25 05:04:40;;;;;;;4.55;3.00;;;17.10;46.00;;;;;;6243568;23;20000;-73
2021/04/25 05:07:06;;;;;;;5.57;3.22;;;17.10;46.00;;;;;;6244091;23;20039;-74
2021/04/25 05:09:32;;;;;;;5.32;3.20;;;17.00;45.90;;;;;;6243323;23;19996;-72
2021/04/25 05:11:57;;;;;;;5.43;2.70;;;17.10;45.90;;;;;;6243323;23;20000;-72
2021/04/25 05:14:24;;;;;;;5.55;3.28;;;17.00;45.90;;;;;;6243670;23;20140;-73
2021/04/25 05:16:50;;;;;;;4.82;2.83;;;17.00;46.00;;;;;;6243809;23;20000;-73
2021/04/25 05:19:15;;;;;;;4.70;2.92;;;17.00;46.00;;;;;;6241814;23;20027;-73
2021/04/25 05:21:41;;;;;;;5.32;3.22;;;17.00;46.10;;;;;;6242005;23;20078;-74
2021/04/25 05:24:07;;;;;;;5.30;3.47;;;17.00;46.00;;;;;;6243188;23;20509;-74
2021/04/25 05:26:33;;;;;;;3.97;2.78;;;17.00;46.00;;;;;;6244103;23;20027;-74
2021/04/25 05:28:59;;;;;;;5.32;3.58;;;17.00;46.00;;;;;;6243647;23;20004;-73
2021/04/25 05:31:25;;;;;;;4.55;3.15;;;17.00;46.00;;;;;;6243852;23;20119;-74
2021/04/25 05:33:51;;;;;;;4.50;2.90;;;17.00;46.10;;;;;;6243755;23;20058;-72
2021/04/25 05:36:16;;;;;;;6.75;3.35;;;17.00;46.10;;;;;;6243913;23;20011;-72
2021/04/25 05:38:42;;;;;;;4.15;2.75;;;17.00;46.20;;;;;;6243343;23;20143;-74
2021/04/25 05:41:08;;;;;;;5.63;3.40;;;17.00;46.20;;;;;;6243830;23;20011;-73
2021/04/25 05:43:33;;;;;;;5.85;2.78;;;17.00;46.20;;;;;;6243466;23;20016;-73
2021/04/25 05:45:59;;;;;;;4.40;3.30;;;16.90;46.20;;;;;;6243052;23;20423;-73
2021/04/25 05:48:25;;;;;;;5.88;2.85;;;16.90;46.20;;;;;;6241969;23;20011;-74
2021/04/25 05:50:50;;;;;;;3.72;2.90;;;16.90;46.20;;;;;;6243496;23;20015;-72
2021/04/25 05:53:17;;;;;;;5.15;3.60;;;16.90;46.20;;;;;;6244149;22;20031;-72
2021/04/25 05:55:43;;;;;;;7.07;3.55;;;16.90;46.20;;;;;;6241124;23;20000;-72
2021/04/25 05:58:09;;;;;;;4.68;3.03;;;16.90;46.20;;;;;;6243623;23;20008;-73
2021/04/25 06:00:38;;;;;;;5.53;3.13;;;16.90;46.20;;;;;;6241424;23;20126;-74
2021/04/25 06:03:04;;;;;;;4.85;2.95;;;16.90;46.20;;;;;;6244213;23;20012;-73
2021/04/25 06:05:30;;;;;;;5.40;2.90;;;16.90;46.20;;;;;;6245311;23;19997;-71
2021/04/25 06:07:55;;;;;;;5.60;3.15;;;16.90;46.20;;;;;;6245633;23;20376;-73
2021/04/25 06:10:22;;;;;;;5.28;3.17;;;16.90;46.20;;;;;;6244839;23;19996;-74
2021/04/25 06:12:51;;;;;;;7.22;3.25;;;16.90;46.20;;;;;;6245208;23;20444;-72
2021/04/25 06:15:18;;;;;;;5.57;3.00;;;16.90;46.30;;;;;;6244844;23;20520;-71
2021/04/25 06:17:44;;;;;;;5.30;3.05;;;17.00;46.30;;;;;;6245041;23;20035;-73
2021/04/25 06:20:11;;;;;;;5.78;3.42;;;16.90;46.30;;;;;;6245392;23;20424;-73
2021/04/25 06:22:37;;;;;;;5.25;3.30;;;16.90;46.40;;;;;;6245499;23;20012;-71
2021/04/25 06:25:03;;;;;;;6.10;3.47;;;16.90;46.40;;;;;;6244695;23;20362;-74
2021/04/25 06:27:29;;;;;;;5.38;3.30;;;16.90;46.40;;;;;;6244915;23;20016;-73
2021/04/25 06:29:55;;;;;;;5.72;3.13;;;16.90;46.40;;;;;;6245014;23;20506;-71
2021/04/25 06:32:21;;;;;;;6.75;3.33;;;16.90;46.40;;;;;;6245823;23;20044;-71
2021/04/25 06:34:47;;;;;;;5.05;3.00;;;16.90;46.30;;;;;;6245519;23;20031;-73
2021/04/25 06:37:13;;;;;;;5.35;2.63;;;17.00;46.40;;;;;;6245543;23;20075;-72
2021/04/25 06:39:38;;;;;;;5.20;3.38;;;16.90;46.30;;;;;;6240961;23;20443;-74
2021/04/25 06:42:04;;;;;;;6.25;3.17;;;16.90;46.30;;;;;;6244476;23;20012;-74
2021/04/25 06:44:30;;;;;;;4.20;2.80;;;16.90;46.30;;;;;;6242314;23;20000;-74
2021/04/25 06:46:56;;;;;;;6.60;3.00;;;16.90;46.30;;;;;;6244981;23;20047;-75
2021/04/25 06:49:22;;;;;;;4.82;2.83;;;16.90;46.30;;;;;;6245190;23;20001;-72
2021/04/25 06:51:48;;;;;;;4.80;3.13;;;16.90;46.30;;;;;;6245576;23;20008;-72
2021/04/25 06:54:14;;;;;;;5.90;2.80;;;16.90;46.30;;;;;;6242840;23;20500;-74
2021/04/25 06:56:40;;;;;;;4.43;3.00;;;16.90;46.40;;;;;;6245163;23;20023;-74
2021/04/25 06:59:06;;;;;;;6.20;3.33;;;16.90;46.50;;;;;;6244637;23;20042;-73
2021/04/25 07:01:31;;;;;;;5.35;3.25;;;16.90;46.50;;;;;;6245312;23;20000;-74
2021/04/25 07:03:57;;;;;;;5.35;2.85;;;16.90;46.50;;;;;;6243084;23;20070;-72
2021/04/25 07:06:23;;;;;;;4.28;3.15;;;16.90;46.50;;;;;;6244747;23;20372;-73
2021/04/25 07:08:49;;;;;;;4.90;3.20;;;16.90;46.50;;;;;;6244909;23;20007;-73
2021/04/25 07:11:14;;;;;;;4.00;2.80;;;16.90;46.60;;;;;;6243979;23;20011;-72
2021/04/25 07:13:40;;;;;;;6.00;2.92;;;16.90;47.10;;;;;;6244118;23;20038;-71
2021/04/25 07:16:06;;;;;;;5.45;3.03;;;16.90;46.60;;;;;;6243661;23;20107;-72
2021/04/25 07:18:32;;;;;;;5.38;2.95;;;16.90;46.60;;;;;;6245077;23;20499;-71
2021/04/25 07:20:58;;;;;;;4.80;2.90;;;16.90;46.50;;;;;;6243253;23;20024;-72
2021/04/25 07:23:24;;;;;;;4.57;2.97;;;16.90;46.50;;;;;;6245010;23;20058;-71
2021/04/25 07:25:55;;;;;;;4.82;3.08;;;16.90;46.50;;;;;;6243150;23;20012;-70
2021/04/25 07:28:23;;;;;;;4.90;2.95;;;16.90;46.60;;;;;;6244839;23;20004;-70
2021/04/25 07:30:48;;;;;;;3.92;2.80;;;17.00;46.70;;;;;;6242975;23;20080;-71
2021/04/25 07:33:15;;;;;;;5.25;2.80;;;17.00;46.80;;;;;;6243091;23;20047;-72
2021/04/25 07:35:41;;;;;;;5.75;3.05;;;17.00;46.80;;;;;;6243185;23;20003;-72
2021/04/25 07:38:07;;;;;;;3.90;2.25;;;17.10;46.80;;;;;;6242447;23;20004;-71
2021/04/25 07:40:33;;;;;;;7.13;3.10;;;17.10;46.80;;;;;;6242265;23;20006;-71
2021/04/25 07:42:59;;;;;;;6.60;2.97;;;17.20;46.80;;;;;;6242420;23;20420;-71
2021/04/25 07:45:25;;;;;;;4.85;2.47;;;17.20;46.80;;;;;;6243005;23;20008;-73
2021/04/25 07:47:50;;;;;;;4.25;2.50;;;17.40;47.00;;;;;;6244105;23;20387;-72
2021/04/25 07:50:16;;;;;;;4.25;2.30;;;17.50;46.80;;;;;;6243193;23;20425;-72
2021/04/25 07:52:42;;;;;;;4.15;2.40;;;17.50;46.60;;;;;;6243409;23;20341;-72
2021/04/25 07:55:09;;;;;;;6.22;2.53;;;17.60;46.50;;;;;;6243512;23;20340;-72
2021/04/25 07:57:37;;;;;;;5.95;2.50;;;17.70;46.60;;;;;;6244567;23;20011;-72
2021/04/25 08:00:06;;;;;;;5.03;2.58;;;17.80;46.30;;;;;;6244331;23;20020;-71
2021/04/25 08:02:31;;;;;;;5.63;3.33;;;17.80;46.10;;;;;;6242444;23;20020;-71
2021/04/25 08:04:57;;;;;;;5.18;3.03;;;17.90;46.00;;;;;;6244109;23;20000;-72
2021/04/25 08:07:22;;;;;;;6.50;3.15;;;18.00;46.10;;;;;;6244481;23;20027;-72
2021/04/25 08:09:48;;;;;;;6.22;3.28;;;18.00;45.90;;;;;;6242836;23;20003;-70
2021/04/25 08:12:14;;;;;;;5.90;3.30;;;18.10;45.90;;;;;;6243845;23;20011;-71
2021/04/25 08:14:39;;;;;;;6.78;3.15;;;18.20;45.80;;;;;;6243327;23;20008;-72
2021/04/25 08:17:05;;;;;;;5.25;2.70;;;18.20;45.80;;;;;;6243563;23;20004;-71
2021/04/25 08:19:31;;;;;;;6.05;3.00;;;18.30;45.80;;;;;;6244284;23;20071;-73
2021/04/25 08:21:56;;;;;;;6.68;2.50;;;18.40;45.80;;;;;;6243641;23;20008;-71
2021/04/25 08:24:22;;;;;;;5.93;2.97;;;18.50;45.60;;;;;;6242487;23;20027;-73
2021/04/25 08:26:48;;;;;;;4.80;2.40;;;18.50;45.40;;;;;;6243881;23;20015;-74
2021/04/25 08:29:14;;;;;;;6.90;2.88;;;18.60;45.30;;;;;;6243737;23;20377;-74
2021/04/25 08:31:40;;;;;;;4.80;3.05;;;18.70;45.60;;;;;;6244301;23;20071;-72
2021/04/25 08:34:05;;;;;;;6.75;2.60;;;18.70;45.30;;;;;;6242126;23;20087;-72
2021/04/25 08:36:31;;;;;;;8.25;3.40;;;18.70;45.80;;;;;;6244547;23;19996;-74
2021/04/25 08:38:56;;;;;;;6.38;3.15;;;18.80;46.00;;;;;;6244307;23;20027;-72
2021/04/25 08:41:24;;;;;;;8.80;2.92;;;19.00;45.70;;;;;;6243095;23;20329;-73
2021/04/25 08:43:50;;;;;;;8.00;2.95;;;19.10;45.80;;;;;;6244524;23;20008;-70
2021/04/25 08:46:23;;;;;;;6.93;3.00;;;19.20;45.90;;;;;;6243217;23;20061;-70
2021/04/25 08:48:50;;;;;;;6.70;2.90;;;19.30;45.80;;;;;;6243941;23;20456;-72
2021/04/25 08:51:17;;;;;;;6.30;2.70;;;19.40;46.20;;;;;;6243485;23;20007;-72
2021/04/25 08:53:44;;;;;;;6.72;3.00;;;19.40;46.10;;;;;;6242272;23;20010;-72
2021/04/25 08:56:10;;;;;;;9.23;4.40;;;19.40;46.90;;;;;;6242193;23;20007;-71
2021/04/25 08:58:35;;;;;;;7.00;3.85;;;19.20;45.20;;;;;;6244078;23;20000;-74
2021/04/25 09:01:03;;;;;;;7.45;3.53;;;19.00;45.00;;;;;;6243542;23;20008;-73
2021/04/25 09:03:28;;;;;;;6.65;3.45;;;19.00;45.30;;;;;;6244011;23;20083;-73
2021/04/25 09:05:58;;;;;;;11.32;2.80;;;19.20;45.20;;;;;;6243595;23;20089;-74
2021/04/25 09:08:41;;;;;;;10.93;2.80;;;19.30;45.50;;;;;;6244369;23;20034;-74
2021/04/25 09:11:07;;;;;;;9.77;3.53;;;19.40;45.40;;;;;;6242195;23;20462;-75
2021/04/25 09:13:32;;;;;;;11.15;3.00;;;19.50;45.50;;;;;;6239083;23;20075;-75
2021/04/25 09:16:09;;;;;;;4.72;2.70;;;19.50;45.50;;;;;;6243272;23;20496;-73
2021/04/25 09:18:35;;;;;;;5.70;2.60;;;19.60;45.90;;;;;;6243157;23;20008;-73
2021/04/25 09:21:08;;;;;;;8.63;2.90;;;19.60;45.50;;;;;;6243151;23;20498;-75
2021/04/25 09:23:34;;;;;;;6.05;2.63;;;19.60;45.50;;;;;;6242495;23;20012;-73
2021/04/25 09:26:00;;;;;;;7.75;3.05;;;19.70;45.60;;;;;;6241159;23;20012;-72
2021/04/25 09:28:27;;;;;;;5.60;3.03;;;19.70;45.50;;;;;;6244344;23;20119;-73
2021/04/25 09:30:55;;;;;;;7.30;2.72;;;19.70;45.40;;;;;;6243497;23;20035;-76
2021/04/25 09:33:21;;;;;;;5.05;2.40;;;19.70;45.40;;;;;;6243782;23;20050;-73
2021/04/25 09:35:47;;;;;;;4.88;2.72;;;19.80;45.40;;;;;;6243605;23;20055;-72
2021/04/25 09:38:14;;;;;;;6.30;3.13;;;19.80;45.20;;;;;;6244978;23;20027;-73
2021/04/25 09:40:44;;;;;;;7.75;2.75;;;19.80;45.30;;;;;;6245688;23;20458;-72
2021/04/25 09:43:12;;;;;;;7.63;2.50;;;19.80;45.30;;;;;;6246100;23;20065;-73
2021/04/25 09:45:45;;;;;;;9.52;3.22;;;19.80;45.30;;;;;;6244890;23;20523;-72
2021/04/25 09:48:31;;;;;;;3.78;1.98;;;19.70;45.20;;;;;;6244477;23;20004;-75
2021/04/25 09:51:17;;;;;;;7.90;3.50;;;19.70;45.30;;;;;;6245876;23;20004;-73
2021/04/25 09:53:49;;;;;;;5.03;2.75;;;19.70;45.30;;;;;;6244661;23;20015;-75
2021/04/25 09:56:17;;;;;;;6.90;3.08;;;19.60;45.20;;;;;;6244811;23;20000;-74
2021/04/25 09:58:58;;;;;;;5.88;2.42;;;19.60;45.00;;;;;;6245484;23;20004;-74
2021/04/25 10:01:29;;;;;;;4.72;2.30;;;19.70;45.00;;;;;;6245405;23;20471;-73
2021/04/25 10:03:55;;;;;;;5.90;2.60;;;19.70;45.00;;;;;;6245079;23;20008;-75
2021/04/25 10:06:22;;;;;;;5.30;2.83;;;19.70;45.10;;;;;;6243605;23;20000;-73
2021/04/25 10:08:49;;;;;;;9.38;3.03;;;19.60;45.00;;;;;;6245525;23;20070;-74
2021/04/25 10:11:17;;;;;;;8.65;2.67;;;19.60;45.00;;;;;;6244808;23;20482;-75
2021/04/25 10:13:46;;;;;;;8.45;3.10;;;19.60;45.20;;;;;;6244032;23;20067;-73
2021/04/25 10:16:16;;;;;;;8.13;2.33;;;19.60;45.50;;;;;;6244233;23;20384;-73
2021/04/25 10:18:42;;;;;;;5.43;2.88;;;19.60;45.20;;;;;;6244150;23;19996;-72
2021/04/25 10:21:08;;;;;;;5.50;2.78;;;19.60;45.10;;;;;;6238662;23;20441;-71
2021/04/25 10:23:34;;;;;;;7.38;2.85;;;19.60;45.10;;;;;;6242224;23;20024;-71
2021/04/25 10:26:00;;;;;;;5.80;2.70;;;19.60;45.20;;;;;;6243570;23;20008;-71
2021/04/25 10:28:37;;;;;;;7.13;2.83;;;19.60;45.30;;;;;;6243337;23;20011;-72
2021/04/25 10:31:06;;;;;;;7.95;2.92;;;19.70;45.50;;;;;;6242620;23;20007;-71
2021/04/25 10:33:50;;;;;;;5.80;3.03;;;19.60;45.60;;;;;;6243005;23;20010;-73
2021/04/25 10:36:16;;;;;;;5.13;2.53;;;19.70;45.70;;;;;;6243332;23;20000;-71
2021/04/25 10:38:41;;;;;;;5.65;2.88;;;19.60;45.80;;;;;;6243484;23;20054;-72
2021/04/25 10:41:22;;;;;;;5.32;2.65;;;19.60;45.90;;;;;;6241542;23;20004;-71
2021/04/25 10:44:02;;;;;;;5.00;3.03;;;19.70;46.00;;;;;;6243181;23;20073;-71
2021/04/25 10:47:07;;;;;;;7.65;3.22;;;19.70;46.10;;;;;;6242898;23;20000;-71
2021/04/25 10:49:36;;;;;;;5.65;3.13;;;19.70;46.10;;;;;;6233341;23;20028;-72
2021/04/25 10:52:21;;;;;;;8.85;2.80;;;19.70;46.10;;;;;;6238126;23;20067;-72
2021/04/25 10:55:18;;;;;;;4.70;2.50;;;19.70;46.30;;;;;;6243743;23;20440;-72
2021/04/25 11:00:33;;;;;;;5.10;2.67;;;19.70;46.20;;;;;;6244178;23;20012;-73
2021/04/25 11:03:02;;;;;;;5.40;2.67;;;19.70;46.50;;;;;;6243564;23;20012;-76
2021/04/25 11:05:36;;;;;;;5.65;2.50;;;19.70;46.20;;;;;;6244276;23;20425;-72
2021/04/25 11:08:12;;;;;;;4.95;2.72;;;19.70;46.40;;;;;;6244684;23;20042;-70
2021/04/25 11:10:53;;;;;;;10.00;3.10;;;19.80;46.40;;;;;;6243830;23;20004;-70
2021/04/25 11:16:18;;;;;;;4.75;2.85;;;19.80;46.30;;;;;;6244404;23;20062;-72
2021/04/25 11:19:04;;;;;;;5.40;3.27;;;19.80;46.10;;;;;;6242270;23;20083;-71
2021/04/25 11:23:58;;;;;;;6.60;2.60;;;19.90;46.60;;;;;;6244650;23;20027;-70
2021/04/25 11:26:35;;;;;;;5.22;2.75;;;19.80;46.30;;;;;;6243476;23;20008;-75
2021/04/25 11:29:03;;;;;;;4.97;2.92;;;19.80;46.30;;;;;;6244418;23;20007;-77
2021/04/25 11:31:46;;;;;;;4.75;2.75;;;19.80;46.30;;;;;;6244598;23;20345;-72
2021/04/25 11:34:31;;;;;;;4.20;2.75;;;19.80;46.30;;;;;;6243575;23;20004;-75
2021/04/25 11:37:06;;;;;;;4.43;3.03;;;19.90;46.20;;;;;;6244506;23;20004;-72
2021/04/25 11:39:40;;;;;;;5.87;3.10;;;19.90;46.00;;;;;;6243660;23;20089;-73
2021/04/25 11:42:07;;;;;;;5.18;2.75;;;20.00;45.90;;;;;;6243139;23;20391;-71
2021/04/25 11:44:38;;;;;;;5.00;2.97;;;20.10;45.80;;;;;;6243579;23;19996;-71
2021/04/25 11:47:09;;;;;;;6.40;3.20;;;20.10;46.20;;;;;;6244030;23;20014;-72
2021/04/25 11:49:40;;;;;;;4.53;2.45;;;20.10;45.50;;;;;;6241821;23;20042;-71
2021/04/25 11:52:10;;;;;;;6.22;2.97;;;20.20;45.40;;;;;;6243803;23;20000;-78
2021/04/25 11:54:36;;;;;;;5.10;3.40;;;20.20;45.30;;;;;;6243352;23;20000;-72
2021/04/25 11:57:18;;;;;;;6.45;2.90;;;20.20;45.30;;;;;;6243535;23;20004;-78
2021/04/25 11:59:59;;;;;;;5.25;3.05;;;20.20;45.20;;;;;;6242807;23;20507;-75
2021/04/25 12:02:29;;;;;;;4.03;2.70;;;20.30;45.20;;;;;;6242397;23;20474;-73
2021/04/25 12:05:00;;;;;;;7.60;3.20;;;20.30;45.00;;;;;;6243148;23;20035;-73
2021/04/25 12:07:43;;;;;;;4.75;3.00;;;20.40;45.20;;;;;;6243452;23;20040;-75
2021/04/25 12:10:15;;;;;;;5.68;3.38;;;20.40;45.10;;;;;;6241853;23;19996;-73
2021/04/25 12:13:05;;;;;;;6.22;3.28;;;20.40;44.90;;;;;;6243687;23;20444;-72
2021/04/25 12:15:41;;;;;;;4.85;3.20;;;20.40;44.90;;;;;;6242973;23;20093;-70
2021/04/25 12:18:07;;;;;;;4.65;3.40;;;20.40;44.90;;;;;;6243187;23;20007;-72
2021/04/25 12:20:39;;;;;;;5.63;3.50;;;20.30;45.00;;;;;;6243463;23;20000;-71
2021/04/25 12:23:05;;;;;;;6.60;3.88;;;20.30;44.90;;;;;;6243377;23;20380;-70
2021/04/25 12:25:31;;;;;;;5.35;3.65;;;20.30;45.10;;;;;;6243389;23;20003;-71
2021/04/25 12:27:58;;;;;;;8.25;3.80;;;20.30;45.00;;;;;;6243237;23;20352;-75
2021/04/25 12:30:25;;;;;;;6.43;3.58;;;20.30;45.70;;;;;;6243222;23;20072;-69
2021/04/25 12:33:09;;;;;;;8.07;4.00;;;20.40;45.10;;;;;;6243673;23;19996;-70
2021/04/25 12:35:38;;;;;;;7.30;3.72;;;20.40;44.80;;;;;;6243554;23;20042;-69
2021/04/25 12:38:23;;;;;;;13.80;3.72;;;20.40;44.80;;;;;;6242339;23;20008;-69
2021/04/25 12:41:08;;;;;;;6.90;3.50;;;20.40;44.70;;;;;;6243374;23;20008;-70
2021/04/25 12:43:56;;;;;;;6.63;3.50;;;20.40;44.70;;;;;;6243759;23;20079;-70
2021/04/25 12:46:24;;;;;;;5.65;3.28;;;20.40;44.70;;;;;;6243301;23;20443;-70
2021/04/25 12:49:07;;;;;;;7.43;3.45;;;20.40;44.60;;;;;;6243412;23;20433;-71
2021/04/25 12:51:45;;;;;;;5.55;3.20;;;20.40;44.60;;;;;;6243643;23;20004;-70
2021/04/25 12:54:18;;;;;;;4.15;3.10;;;20.50;44.70;;;;;;6243736;23;20027;-71
2021/04/25 12:56:53;;;;;;;7.03;3.30;;;20.50;44.90;;;;;;6242937;23;20031;-72
2021/04/25 12:59:35;;;;;;;5.78;3.05;;;20.60;44.90;;;;;;6240906;23;20455;-73